Time;durP1;ratioP1;P1;durP2;ratioP2;P2;SDS_P1;SDS_P2;PMS_P1;PMS_P2;Temp;Humidity;BMP_temperature;BMP_pressure;BME280_temperature;BME280_humidity;BME280_pressure;Samples;Min_cycle;Max_cycle;Signal;HPM_P1;HPM_P2
2023/01/18 04:54:20;;;;;;;40.10;28.13;;;12.60;94.10;;;;;;4591632;19;20482;-33
2023/01/18 04:56:10;;;;;;;39.42;28.23;;;12.50;94.10;;;;;;4593898;19;20468;-33
2023/01/18 04:57:42;;;;;;;42.83;28.37;;;12.50;94.10;;;;;;4591858;19;20095;-31
2023/01/18 04:59:16;;;;;;;37.87;26.17;;;12.60;94.20;;;;;;4592497;19;20540;-33
2023/01/18 05:00:47;;;;;;;38.37;27.03;;;12.60;94.20;;;;;;4593077;19;20797;-32
2023/01/18 05:02:20;;;;;;;42.37;29.30;;;12.60;94.10;;;;;;4590853;19;20788;-31
2023/01/18 05:03:52;;;;;;;39.22;27.88;;;12.60;94.20;;;;;;4592194;19;20497;-32
2023/01/18 05:05:23;;;;;;;45.15;29.40;;;12.60;94.20;;;;;;4592826;19;20014;-31
2023/01/18 05:06:54;;;;;;;41.60;28.92;;;12.60;94.20;;;;;;4592561;19;20011;-33
2023/01/18 05:08:26;;;;;;;39.95;27.33;;;12.60;94.20;;;;;;4591353;19;20010;-32
2023/01/18 05:09:57;;;;;;;61.55;38.88;;;12.50;94.30;;;;;;4593662;19;20011;-30
2023/01/18 05:11:28;;;;;;;57.00;37.55;;;12.50;94.30;;;;;;4592455;19;20007;-32
2023/01/18 05:12:59;;;;;;;51.53;34.63;;;12.50;94.20;;;;;;4593244;19;20097;-32
2023/01/18 05:14:30;;;;;;;45.60;30.27;;;12.50;94.20;;;;;;4593243;19;20034;-30
2023/01/18 05:16:02;;;;;;;45.80;29.52;;;12.40;94.50;;;;;;4591798;19;20002;-31
2023/01/18 05:17:34;;;;;;;39.97;27.73;;;12.40;94.50;;;;;;4589477;19;20487;-32
2023/01/18 05:19:05;;;;;;;41.45;27.38;;;12.40;94.50;;;;;;4591599;19;20465;-33
2023/01/18 05:20:36;;;;;;;40.33;28.38;;;12.40;94.50;;;;;;4591895;19;20014;-32
2023/01/18 05:22:07;;;;;;;36.28;25.52;;;12.40;94.50;;;;;;4592422;19;20369;-30
2023/01/18 05:23:39;;;;;;;39.25;25.55;;;12.50;94.40;;;;;;4591725;19;20492;-31
2023/01/18 05:25:10;;;;;;;39.47;25.37;;;12.50;94.70;;;;;;4590733;19;20027;-30
2023/01/18 05:26:41;;;;;;;38.63;26.10;;;12.50;94.50;;;;;;4590533;19;20039;-32
2023/01/18 05:28:12;;;;;;;41.78;27.08;;;12.50;94.50;;;;;;4590629;19;20038;-31
2023/01/18 05:29:46;;;;;;;44.47;28.15;;;12.50;94.50;;;;;;4591920;19;20026;-32
2023/01/18 05:31:19;;;;;;;42.87;29.00;;;12.50;94.50;;;;;;4591706;19;20505;-31
2023/01/18 05:32:50;;;;;;;40.37;27.37;;;12.40;94.50;;;;;;4590596;19;20523;-31
2023/01/18 05:34:21;;;;;;;40.17;26.85;;;12.40;94.60;;;;;;4592729;19;20457;-31
2023/01/18 05:35:54;;;;;;;35.15;25.38;;;12.50;94.70;;;;;;4590085;19;20018;-33
2023/01/18 05:37:25;;;;;;;49.07;31.80;;;12.40;94.60;;;;;;4589283;19;20017;-32
2023/01/18 05:38:56;;;;;;;40.92;26.63;;;12.40;94.60;;;;;;4590900;19;20507;-32
2023/01/18 05:40:28;;;;;;;35.35;25.73;;;12.40;94.50;;;;;;4592615;19;20360;-32
2023/01/18 05:41:59;;;;;;;38.15;26.75;;;12.40;94.60;;;;;;4590123;19;20018;-32
2023/01/18 05:43:31;;;;;;;41.47;28.50;;;12.40;94.60;;;;;;4588995;19;20014;-31
2023/01/18 05:45:02;;;;;;;39.80;24.50;;;12.40;94.70;;;;;;4591887;19;20039;-31
2023/01/18 05:46:34;;;;;;;37.78;26.88;;;12.40;94.60;;;;;;4592572;19;20015;-33
2023/01/18 05:48:05;;;;;;;35.88;25.85;;;12.40;94.60;;;;;;4591032;19;20014;-31
2023/01/18 05:49:36;;;;;;;38.33;25.98;;;12.40;94.70;;;;;;4591799;19;20644;-33
2023/01/18 05:51:08;;;;;;;36.50;26.15;;;12.40;94.70;;;;;;4591354;19;20018;-31
2023/01/18 05:52:39;;;;;;;33.90;24.20;;;12.40;94.70;;;;;;4591380;19;20014;-32
2023/01/18 05:56:00;;;;;;;38.10;26.17;;;12.40;94.70;;;;;;4589859;19;20014;-31
2023/01/18 05:57:51;;;;;;;38.10;25.83;;;12.40;94.80;;;;;;4591378;19;20456;-32
2023/01/18 05:59:23;;;;;;;33.77;24.40;;;12.40;94.80;;;;;;4591326;19;20449;-31
2023/01/18 06:00:54;;;;;;;34.70;25.38;;;12.40;94.90;;;;;;4589895;19;20492;-33
2023/01/18 06:02:25;;;;;;;35.42;26.27;;;12.40;94.90;;;;;;4589542;19;20435;-31
2023/01/18 06:03:56;;;;;;;33.63;24.65;;;12.40;95.00;;;;;;4590487;19;20018;-32
2023/01/18 06:05:27;;;;;;;38.05;26.17;;;12.40;94.90;;;;;;4589635;19;20035;-30
2023/01/18 06:06:58;;;;;;;38.95;28.67;;;12.40;95.00;;;;;;4590169;19;20014;-32
2023/01/18 06:08:30;;;;;;;39.75;26.30;;;12.40;94.90;;;;;;4592503;19;20527;-30
2023/01/18 06:10:01;;;;;;;35.38;25.65;;;12.40;95.00;;;;;;4591823;19;20014;-31
2023/01/18 06:11:32;;;;;;;32.90;24.17;;;12.50;95.00;;;;;;4592033;19;20476;-28
2023/01/18 06:13:04;;;;;;;35.08;24.33;;;12.50;94.90;;;;;;4590067;19;20650;-31
2023/01/18 06:14:35;;;;;;;36.73;26.13;;;12.60;94.90;;;;;;4590516;19;20564;-33
2023/01/18 06:16:06;;;;;;;40.65;27.83;;;12.60;94.80;;;;;;4589122;19;20453;-29
2023/01/18 06:17:38;;;;;;;38.85;29.08;;;12.70;94.80;;;;;;4590077;19;20583;-30
2023/01/18 06:19:09;;;;;;;43.75;30.17;;;12.70;94.80;;;;;;4588384;19;20010;-29
2023/01/18 06:20:41;;;;;;;41.40;28.80;;;12.70;94.70;;;;;;4588319;19;20006;-29
2023/01/18 06:22:31;;;;;;;38.20;28.50;;;12.70;94.70;;;;;;4588602;19;20021;-29
2023/01/18 06:24:02;;;;;;;41.27;27.00;;;12.80;94.60;;;;;;4588422;19;20011;-33
2023/01/18 06:25:33;;;;;;;38.45;28.30;;;12.80;94.50;;;;;;4592035;19;20030;-32
2023/01/18 06:27:04;;;;;;;34.90;25.98;;;12.90;94.50;;;;;;4591593;19;20468;-30
2023/01/18 06:28:35;;;;;;;35.20;25.67;;;12.80;94.50;;;;;;4591499;19;20011;-30
2023/01/18 06:30:07;;;;;;;43.72;31.20;;;12.90;94.50;;;;;;4589790;19;20027;-33
2023/01/18 06:31:38;;;;;;;47.87;36.20;;;12.90;94.50;;;;;;4589459;19;20089;-32
2023/01/18 06:33:09;;;;;;;39.65;30.95;;;12.90;94.60;;;;;;4588915;19;20059;-34
2023/01/18 06:34:40;;;;;;;35.63;24.88;;;12.90;94.60;;;;;;4589658;19;20006;-30
2023/01/18 06:36:12;;;;;;;35.28;24.33;;;12.80;94.60;;;;;;4589026;19;20476;-33
2023/01/18 06:37:46;;;;;;;32.85;24.83;;;12.80;94.60;;;;;;4590676;19;20010;-31
2023/01/18 06:39:17;;;;;;;34.97;26.57;;;12.80;94.70;;;;;;4591152;19;20043;-31
2023/01/18 06:40:48;;;;;;;36.10;25.73;;;12.80;94.90;;;;;;4590173;19;20484;-30
2023/01/18 06:42:19;;;;;;;35.13;26.17;;;12.80;94.70;;;;;;4590134;19;20044;-31
2023/01/18 06:43:50;;;;;;;34.08;24.35;;;12.80;94.70;;;;;;4588521;19;20021;-31
2023/01/18 06:45:22;;;;;;;34.85;27.75;;;12.70;94.80;;;;;;4589961;19;20042;-31
2023/01/18 06:46:53;;;;;;;42.00;31.35;;;12.70;94.90;;;;;;4589999;19;20021;-32
2023/01/18 06:48:25;;;;;;;36.10;25.85;;;12.70;94.90;;;;;;4590304;19;20031;-31
2023/01/18 06:49:56;;;;;;;33.30;25.07;;;12.70;94.90;;;;;;4591025;19;20337;-32
2023/01/18 06:51:27;;;;;;;30.50;22.90;;;12.70;94.90;;;;;;4590753;19;20013;-31
2023/01/18 06:52:58;;;;;;;31.60;21.73;;;12.70;95.00;;;;;;4591287;19;20366;-32
2023/01/18 06:54:30;;;;;;;31.77;23.58;;;12.70;95.10;;;;;;4589653;19;20011;-32
2023/01/18 07:36:30;;;;;;;48.60;35.13;;;12.50;96.20;;;;;;4589383;19;20456;-32
2023/01/18 07:38:02;;;;;;;49.25;35.65;;;12.50;96.30;;;;;;4589620;19;20437;-30
2023/01/18 07:39:33;;;;;;;54.22;38.13;;;12.50;96.30;;;;;;4589222;19;20100;-31
2023/01/18 07:41:07;;;;;;;53.50;39.38;;;12.50;96.40;;;;;;4588577;19;20027;-32
2023/01/18 07:42:38;;;;;;;47.53;35.13;;;12.50;96.40;;;;;;4588252;19;20015;-31
2023/01/18 07:44:10;;;;;;;53.05;36.78;;;12.50;96.50;;;;;;4589335;19;20473;-32
2023/01/18 07:45:42;;;;;;;53.33;39.17;;;12.50;96.60;;;;;;4588638;19;20002;-31
2023/01/18 07:47:13;;;;;;;49.60;36.53;;;12.50;96.60;;;;;;4588596;19;20432;-31
2023/01/18 07:48:45;;;;;;;51.00;38.15;;;12.50;96.60;;;;;;4588834;19;20460;-32
2023/01/18 07:50:16;;;;;;;51.33;36.92;;;12.50;96.70;;;;;;4589599;19;20011;-31
2023/01/18 07:51:47;;;;;;;;;;;12.50;96.70;;;;;;4589935;19;20430;-32
2023/01/18 07:53:37;;;;;;;64.40;46.30;;;12.50;96.70;;;;;;4588441;19;19919;-32
2023/01/18 07:55:08;;;;;;;54.30;39.17;;;12.50;96.80;;;;;;4588307;19;20026;-32
2023/01/18 07:56:40;;;;;;;55.95;41.38;;;12.50;96.90;;;;;;4588612;19;20429;-31
2023/01/18 07:58:11;;;;;;;54.85;40.88;;;12.50;96.90;;;;;;4588323;19;20056;-32
2023/01/18 07:59:42;;;;;;;56.22;42.13;;;12.40;96.90;;;;;;4589436;19;20010;-32
2023/01/18 08:01:15;;;;;;;58.10;44.40;;;12.50;97.00;;;;;;4588713;19;20028;-32
2023/01/18 08:02:49;;;;;;;54.47;40.37;;;12.50;97.00;;;;;;4587734;19;20398;-32
2023/01/18 08:04:21;;;;;;;54.80;40.80;;;12.40;97.00;;;;;;4589212;19;20464;-32
2023/01/18 08:05:52;;;;;;;50.85;38.10;;;12.40;97.00;;;;;;4589004;19;20447;-31
2023/01/18 08:07:23;;;;;;;56.35;40.92;;;12.50;97.00;;;;;;4588799;19;20070;-31
2023/01/18 08:08:54;;;;;;;54.30;39.78;;;12.40;97.10;;;;;;4588232;19;20510;-32
2023/01/18 08:10:26;;;;;;;54.42;38.80;;;12.40;97.10;;;;;;4590428;19;20015;-31
2023/01/18 08:11:57;;;;;;;53.85;38.38;;;12.40;97.20;;;;;;4591498;19;20456;-31
2023/01/18 08:13:28;;;;;;;46.03;35.47;;;12.40;97.30;;;;;;4593369;19;20014;-32
2023/01/18 08:14:59;;;;;;;46.47;34.03;;;12.40;97.30;;;;;;4594264;19;20050;-32
2023/01/18 08:16:31;;;;;;;49.53;35.22;;;12.40;97.30;;;;;;4594493;19;20017;-31
2023/01/18 08:18:03;;;;;;;47.35;37.17;;;12.40;97.40;;;;;;4593774;19;20070;-33
2023/01/18 08:19:35;;;;;;;54.50;37.60;;;12.40;97.40;;;;;;4592473;19;20333;-32
2023/01/18 08:21:09;;;;;;;54.80;41.30;;;12.40;97.50;;;;;;4593589;19;20019;-32
2023/01/18 08:22:40;;;;;;;63.83;48.47;;;12.40;97.50;;;;;;4593898;19;20325;-31
2023/01/18 08:24:12;;;;;;;74.72;58.28;;;12.40;97.50;;;;;;4592436;19;20459;-32
2023/01/18 08:25:43;;;;;;;70.03;52.85;;;12.40;97.60;;;;;;4593317;19;20011;-31
2023/01/18 08:27:15;;;;;;;77.15;53.63;;;12.40;97.60;;;;;;4594134;19;20010;-32
2023/01/18 08:28:46;;;;;;;78.63;53.73;;;12.40;97.70;;;;;;4594273;19;20029;-32
2023/01/18 08:30:18;;;;;;;73.72;50.72;;;12.40;97.70;;;;;;4592231;19;20436;-32
2023/01/18 08:31:51;;;;;;;63.10;47.80;;;12.40;97.70;;;;;;4593572;19;20007;-32
2023/01/18 08:33:22;;;;;;;75.77;56.10;;;12.40;97.80;;;;;;4593901;19;20015;-31
2023/01/18 08:34:53;;;;;;;82.50;59.20;;;12.40;97.80;;;;;;4593492;19;20492;-31
2023/01/18 11:37:35;;;;;;;30.90;24.17;;;12.40;98.20;;;;;;4588076;19;20436;-31
2023/01/18 11:39:23;;;;;;;33.33;26.33;;;12.50;98.20;;;;;;4588182;19;20440;-31
2023/01/18 11:41:15;;;;;;;35.50;25.33;;;12.50;98.20;;;;;;4589593;19;20413;-31
2023/01/18 11:42:46;;;;;;;33.83;27.77;;;12.50;98.20;;;;;;4589181;19;20547;-31
2023/01/18 11:44:30;;;;;;;38.20;29.17;;;12.50;98.10;;;;;;4588569;19;20039;-31
2023/01/18 11:46:24;;;;;;;36.80;29.50;;;12.50;98.10;;;;;;4592112;19;20467;-31
2023/01/18 11:48:20;;;;;;;34.57;28.90;;;12.50;98.20;;;;;;4594429;19;20754;-31
2023/01/18 11:50:05;;;;;;;108.07;66.47;;;12.50;98.10;;;;;;4594679;19;20420;-31
2023/01/18 11:51:40;;;;;;;76.80;48.73;;;12.50;98.10;;;;;;4594204;19;20424;-33
2023/01/18 11:53:34;;;;;;;51.83;36.03;;;12.50;98.10;;;;;;4593123;19;20421;-31
2023/01/18 11:55:14;;;;;;;51.50;36.93;;;12.50;98.10;;;;;;4593755;19;20373;-31
2023/01/18 11:56:48;;;;;;;88.57;60.53;;;12.60;98.20;;;;;;4593032;19;20465;-31
2023/01/18 11:58:25;;;;;;;89.43;62.77;;;12.50;98.20;;;;;;4593868;19;20445;-33
2023/01/18 11:59:57;;;;;;;98.83;71.20;;;12.50;98.20;;;;;;4593585;19;20409;-32
2023/01/18 12:02:05;;;;;;;60.20;45.28;;;12.50;98.20;;;;;;4593047;19;20472;-32
2023/01/18 12:19:18;;;;;;;50.63;43.30;;;12.40;98.10;;;;;;4592568;19;20441;-32
2023/01/18 12:21:11;;;;;;;42.40;33.87;;;12.40;98.00;;;;;;4592774;19;20025;-32
2023/01/18 12:22:51;;;;;;;38.63;31.83;;;12.40;98.10;;;;;;4592031;19;20504;-31
2023/01/18 12:24:41;;;;;;;37.80;29.87;;;12.40;98.20;;;;;;4592947;19;20456;-31
2023/01/18 12:26:34;;;;;;;41.07;31.83;;;12.40;98.30;;;;;;4594287;19;20464;-34
2023/01/18 12:28:50;;;;;;;38.63;30.90;;;12.40;98.30;;;;;;4593690;19;21012;-32
2023/01/18 12:30:26;;;;;;;40.57;29.90;;;12.50;98.30;;;;;;4590778;19;20534;-31
2023/01/18 12:32:12;;;;;;;40.10;31.93;;;12.50;98.30;;;;;;4589541;19;20485;-33
2023/01/18 12:33:57;;;;;;;43.90;35.00;;;12.50;98.30;;;;;;4591189;19;20461;-31
2023/01/18 12:35:35;;;;;;;39.27;31.80;;;12.50;98.30;;;;;;4591988;19;21005;-31
2023/01/18 12:37:16;;;;;;;40.23;32.27;;;12.50;98.30;;;;;;4590891;19;20492;-34
2023/01/18 12:40:33;;;;;;;38.63;30.77;;;12.40;98.30;;;;;;4590711;19;20453;-32
2023/01/18 12:42:08;;;;;;;41.40;33.05;;;12.40;98.30;;;;;;4589639;19;20532;-32
2023/01/18 12:43:47;;;;;;;41.13;32.17;;;12.40;98.40;;;;;;4588644;19;20014;-34
2023/01/18 12:45:18;;;;;;;51.67;39.67;;;12.50;98.40;;;;;;4591356;19;20445;-33
2023/01/18 12:47:01;;;;;;;42.25;32.95;;;12.40;98.40;;;;;;4590002;19;20487;-32
2023/01/18 12:48:42;;;;;;;46.10;36.77;;;12.40;98.30;;;;;;4589912;19;20013;-32
2023/01/18 12:50:24;;;;;;;62.37;51.57;;;12.40;98.30;;;;;;4590310;19;20844;-29
2023/01/18 12:51:56;;;;;;;;;;;12.40;98.40;;;;;;4588518;19;20464;-30
2023/01/18 12:53:31;;;;;;;79.65;60.38;;;12.40;98.40;;;;;;4588881;19;19914;-31
2023/01/18 12:55:03;;;;;;;94.93;72.47;;;12.40;98.30;;;;;;4587307;19;20039;-31
2023/01/18 12:56:40;;;;;;;82.70;60.93;;;12.50;98.30;;;;;;4585407;19;21094;-31
2023/01/18 12:58:16;;;;;;;91.27;64.87;;;12.50;98.40;;;;;;4587217;19;20478;-31
2023/01/18 13:00:13;;;;;;;52.37;41.93;;;12.50;98.30;;;;;;4590925;19;20487;-33
2023/01/18 13:01:53;;;;;;;58.63;50.63;;;12.40;98.20;;;;;;4589565;19;21007;-32
2023/01/18 13:03:45;;;;;;;40.63;35.57;;;12.50;98.20;;;;;;4590330;19;20010;-32
2023/01/18 13:05:33;;;;;;;34.58;29.83;;;12.50;98.20;;;;;;4590807;19;20485;-31
2023/01/18 13:07:06;;;;;;;32.90;28.43;;;12.40;98.20;;;;;;4589714;19;20019;-32
2023/01/18 13:09:18;;;;;;;31.50;27.93;;;12.50;98.30;;;;;;4589532;19;20989;-34
2023/01/18 13:10:49;;;;;;;34.40;27.83;;;12.50;98.20;;;;;;4591439;19;21044;-33
2023/01/18 13:12:20;;;;;;;45.70;38.60;;;12.50;98.20;;;;;;4591703;19;20018;-32
2023/01/18 13:14:28;;;;;;;46.60;39.72;;;12.50;98.20;;;;;;4590886;19;20499;-32
2023/01/18 13:16:20;;;;;;;36.90;28.17;;;12.40;98.20;;;;;;4591146;19;20011;-31
2023/01/18 13:17:54;;;;;;;57.93;44.40;;;12.50;98.30;;;;;;4592768;19;20465;-32
2023/01/18 13:19:53;;;;;;;74.97;51.47;;;12.50;98.30;;;;;;4590843;19;20558;-34
2023/01/18 13:21:44;;;;;;;78.60;54.37;;;12.50;98.40;;;;;;4590656;19;20456;-33
2023/01/18 13:23:37;;;;;;;59.35;44.08;;;12.50;98.40;;;;;;4590657;19;20485;-32
2023/01/18 13:25:25;;;;;;;;;;;12.50;98.30;;;;;;4593075;19;20081;-34
2023/01/18 13:27:13;;;;;;;58.70;43.33;;;12.50;98.30;;;;;;4590749;19;19927;-31
2023/01/18 13:28:45;;;;;;;50.57;39.00;;;12.50;98.20;;;;;;4592059;19;20445;-32
2023/01/18 13:30:18;;;;;;;;;;;12.40;98.20;;;;;;4595361;19;20494;-34
2023/01/18 13:31:49;;;;;;;41.23;32.77;;;12.40;98.20;;;;;;4591646;19;20330;-33
2023/01/18 13:33:24;;;;;;;36.60;31.77;;;12.30;98.30;;;;;;4590861;19;20848;-33
2023/01/18 13:35:14;;;;;;;34.53;28.13;;;12.20;98.40;;;;;;4591530;19;20070;-30
2023/01/18 13:36:45;;;;;;;37.83;29.47;;;12.20;98.40;;;;;;4590848;19;20814;-32
2023/01/18 13:38:18;;;;;;;36.50;30.02;;;12.30;98.40;;;;;;4590512;19;20850;-31
2023/01/18 13:39:51;;;;;;;35.67;27.60;;;12.30;98.40;;;;;;4590002;19;20015;-33
2023/01/18 15:28:46;;;;;;;32.70;27.80;;;12.20;99.20;;;;;;4587675;19;20887;-33
2023/01/18 15:30:19;;;;;;;36.88;28.90;;;12.30;99.10;;;;;;4588661;19;20421;-29
2023/01/18 15:31:57;;;;;;;39.57;31.07;;;12.30;99.10;;;;;;4588646;19;20029;-31
2023/01/18 15:33:35;;;;;;;38.83;30.13;;;12.30;99.10;;;;;;4589459;19;20409;-34
2023/01/18 15:35:11;;;;;;;43.97;32.03;;;12.30;99.10;;;;;;4588609;19;20452;-34
2023/01/18 15:36:43;;;;;;;37.50;29.20;;;12.30;99.10;;;;;;4589073;19;20473;-31
2023/01/18 15:38:14;;;;;;;29.77;23.77;;;12.40;99.10;;;;;;4588710;19;20421;-32
2023/01/18 15:40:00;;;;;;;27.42;21.23;;;12.40;99.10;;;;;;4588556;19;20021;-32
2023/01/18 15:41:31;;;;;;;26.40;22.73;;;12.40;99.30;;;;;;4588477;19;20012;-31
2023/01/18 15:43:07;;;;;;;26.52;21.67;;;12.40;99.10;;;;;;4588015;19;20465;-33
2023/01/18 15:44:39;;;;;;;25.70;20.93;;;12.40;99.10;;;;;;4589124;19;20024;-31
2023/01/18 15:46:11;;;;;;;28.70;22.75;;;12.40;99.10;;;;;;4590095;19;20478;-32
2023/01/18 15:47:48;;;;;;;32.10;25.70;;;12.40;99.10;;;;;;4589747;19;20031;-34
2023/01/18 15:49:19;;;;;;;41.83;32.07;;;12.40;99.10;;;;;;4587361;19;20468;-32
2023/01/18 15:50:52;;;;;;;36.70;30.63;;;12.50;99.10;;;;;;4584924;19;20492;-32
2023/01/18 15:52:45;;;;;;;46.00;39.50;;;12.40;99.20;;;;;;4588673;19;20015;-31
2023/01/18 15:54:20;;;;;;;43.57;36.90;;;12.40;99.20;;;;;;4589434;19;20780;-34
2023/01/18 15:55:57;;;;;;;33.77;29.03;;;12.40;99.20;;;;;;4587090;19;20487;-33
2023/01/18 15:57:28;;;;;;;42.37;36.50;;;12.40;99.20;;;;;;4587746;19;20445;-34
2023/01/18 15:59:00;;;;;;;44.47;34.58;;;12.40;99.30;;;;;;4589863;19;20448;-34
2023/01/18 16:01:10;;;;;;;37.38;32.22;;;12.50;99.30;;;;;;4588530;19;20018;-32
2023/01/18 16:02:41;;;;;;;39.20;33.60;;;12.50;99.30;;;;;;4586597;19;20019;-33
2023/01/18 16:04:19;;;;;;;33.85;26.23;;;12.40;99.30;;;;;;4587088;19;20504;-32
2023/01/18 16:06:10;;;;;;;35.77;30.33;;;12.40;99.40;;;;;;4586424;19;20051;-33
2023/01/18 16:07:41;;;;;;;37.27;32.97;;;12.40;99.40;;;;;;4586811;19;20877;-31
2023/01/18 16:09:14;;;;;;;27.83;22.90;;;12.40;99.40;;;;;;4585992;19;20564;-34
2023/01/18 16:10:47;;;;;;;29.40;24.80;;;12.40;99.40;;;;;;4587662;19;20017;-29
2023/01/18 16:12:33;;;;;;;28.40;24.50;;;12.40;99.40;;;;;;4586179;19;20015;-29
2023/01/18 16:14:17;;;;;;;27.57;22.20;;;12.40;99.50;;;;;;4586975;19;20465;-28
2023/01/18 16:16:05;;;;;;;31.93;26.90;;;12.30;99.50;;;;;;4586885;19;20457;-29
2023/01/18 16:17:36;;;;;;;29.47;22.97;;;12.40;99.50;;;;;;4586625;19;20557;-30
2023/01/18 16:19:23;;;;;;;26.88;21.48;;;12.40;99.50;;;;;;4585697;19;20527;-31
2023/01/18 16:20:54;;;;;;;26.47;20.80;;;12.40;99.50;;;;;;4587289;19;20014;-32
2023/01/18 16:22:30;;;;;;;26.90;21.42;;;12.40;99.40;;;;;;4585400;19;20457;-30
2023/01/18 16:24:02;;;;;;;26.87;20.47;;;12.40;99.50;;;;;;4585407;19;20015;-31
2023/01/18 16:25:34;;;;;;;26.63;20.67;;;12.40;99.50;;;;;;4585607;19;21204;-30
2023/01/18 16:27:12;;;;;;;27.52;22.48;;;12.40;99.50;;;;;;4585829;19;20030;-32
2023/01/18 16:30:34;;;;;;;29.90;23.67;;;12.50;99.60;;;;;;4585659;19;20428;-31
2023/01/18 16:32:22;;;;;;;32.20;26.40;;;12.50;99.50;;;;;;4590501;19;21069;-30
2023/01/18 16:33:54;;;;;;;35.50;30.17;;;12.50;99.60;;;;;;4591022;19;20591;-30
2023/01/18 16:35:25;;;;;;;35.30;28.08;;;12.50;99.60;;;;;;4589904;19;20500;-30
2023/01/18 16:36:57;;;;;;;;;;;12.50;99.60;;;;;;4592864;19;20035;-30
2023/01/18 16:38:28;;;;;;;47.47;33.05;;;12.50;99.60;;;;;;4590929;19;19923;-31
2023/01/18 16:39:59;;;;;;;39.75;26.45;;;12.50;99.60;;;;;;4591567;19;20554;-30
2023/01/18 16:41:31;;;;;;;40.65;29.17;;;12.50;99.70;;;;;;4592321;19;20483;-31
2023/01/18 16:43:17;;;;;;;33.47;24.23;;;12.50;99.70;;;;;;4592119;19;20014;-30
2023/01/18 16:44:48;;;;;;;43.43;27.90;;;12.50;99.70;;;;;;4593731;19;20449;-31
2023/01/18 16:46:20;;;;;;;37.25;27.45;;;12.50;99.70;;;;;;4592932;19;20505;-29
2023/01/18 16:47:52;;;;;;;30.53;23.77;;;12.40;99.70;;;;;;4592220;19;20073;-31
2023/01/18 16:49:25;;;;;;;34.70;26.85;;;12.40;99.70;;;;;;4592619;19;20457;-30
2023/01/18 16:50:58;;;;;;;29.87;22.17;;;12.40;99.70;;;;;;4591111;19;20015;-30
2023/01/18 16:52:30;;;;;;;31.63;23.80;;;12.40;99.80;;;;;;4592327;19;20516;-31
2023/01/18 16:54:01;;;;;;;35.13;25.77;;;12.40;99.70;;;;;;4590626;19;20496;-30
2023/01/18 16:55:32;;;;;;;42.22;27.70;;;12.50;99.70;;;;;;4592425;19;20437;-30
2023/01/18 16:57:04;;;;;;;35.13;25.83;;;12.50;99.80;;;;;;4592037;19;20029;-29
2023/01/18 16:58:35;;;;;;;29.92;22.77;;;12.50;99.80;;;;;;4593752;19;20014;-30
2023/01/18 17:00:17;;;;;;;31.02;23.25;;;12.50;99.80;;;;;;4592394;19;20014;-30
2023/01/18 17:01:49;;;;;;;29.00;21.55;;;12.50;99.80;;;;;;4592675;19;20037;-29
2023/01/18 17:03:20;;;;;;;31.93;24.77;;;12.50;99.80;;;;;;4591577;19;20028;-30
2023/01/18 17:04:51;;;;;;;31.30;23.55;;;12.50;99.90;;;;;;4591443;19;20456;-31
2023/01/18 17:06:25;;;;;;;41.17;30.17;;;12.50;99.90;;;;;;4592777;19;20022;-30
2023/01/18 17:07:56;;;;;;;37.07;27.80;;;12.50;99.90;;;;;;4592325;19;20023;-31
2023/01/18 17:09:28;;;;;;;37.83;28.20;;;12.50;99.90;;;;;;4592577;19;20989;-29
2023/01/18 17:10:59;;;;;;;34.50;29.63;;;12.50;99.90;;;;;;4592029;19;20018;-31
2023/01/18 17:12:30;;;;;;;46.50;36.85;;;12.50;99.90;;;;;;4592896;19;20485;-30
2023/01/18 17:14:01;;;;;;;67.57;50.25;;;12.40;99.90;;;;;;4591043;19;20014;-32
2023/01/18 17:15:33;;;;;;;73.18;50.75;;;12.40;99.90;;;;;;4590210;19;20018;-29
2023/01/18 17:17:04;;;;;;;52.55;39.03;;;12.40;99.90;;;;;;4592738;19;20018;-31
2023/01/18 17:18:35;;;;;;;55.17;42.95;;;12.50;99.90;;;;;;4592161;19;20082;-31
2023/01/18 17:20:25;;;;;;;59.42;44.28;;;12.50;99.90;;;;;;4591838;19;20500;-32
2023/01/18 17:21:57;;;;;;;40.10;29.80;;;12.40;99.90;;;;;;4589658;19;20014;-30
2023/01/18 17:23:28;;;;;;;37.00;27.73;;;12.40;99.90;;;;;;4591479;19;20525;-31
2023/01/18 17:25:00;;;;;;;45.88;34.95;;;12.50;99.90;;;;;;4590339;19;20507;-29
2023/01/18 17:26:31;;;;;;;53.67;37.20;;;12.40;99.90;;;;;;4593007;19;20086;-33
2023/01/18 17:28:02;;;;;;;41.85;32.72;;;12.40;99.90;;;;;;4591547;19;20431;-30
2023/01/18 17:29:33;;;;;;;39.70;30.88;;;12.40;99.90;;;;;;4592780;19;20014;-29
2023/01/18 17:34:37;;;;;;;36.40;27.80;;;12.40;99.90;;;;;;4592931;19;20485;-29
2023/01/18 17:36:09;;;;;;;52.65;39.85;;;12.40;99.90;;;;;;4590937;19;20512;-29
2023/01/18 17:37:40;;;;;;;50.88;39.17;;;12.40;99.90;;;;;;4592744;19;20362;-30
2023/01/18 17:39:13;;;;;;;37.53;30.17;;;12.40;99.90;;;;;;4591661;19;20082;-31
2023/01/18 17:40:45;;;;;;;36.07;28.70;;;12.40;99.90;;;;;;4590705;19;20472;-32
2023/01/18 17:42:16;;;;;;;27.90;23.58;;;12.40;99.90;;;;;;4593064;19;20813;-32
2023/01/18 17:43:47;;;;;;;25.92;20.77;;;12.40;99.90;;;;;;4588646;19;20338;-31
2023/01/18 17:45:19;;;;;;;29.57;24.93;;;12.40;99.90;;;;;;4590959;19;20039;-32
2023/01/18 17:46:50;;;;;;;23.95;20.10;;;12.40;99.90;;;;;;4591046;19;20492;-29
2023/01/18 17:48:21;;;;;;;23.98;20.33;;;12.40;99.90;;;;;;4592042;19;20479;-30
2023/01/18 17:49:53;;;;;;;24.27;20.90;;;12.40;99.90;;;;;;4591215;19;20014;-30
2023/01/18 17:51:24;;;;;;;38.50;33.70;;;12.40;99.90;;;;;;4591965;19;20474;-30
2023/01/18 17:52:55;;;;;;;50.40;44.25;;;12.40;99.90;;;;;;4591806;19;20357;-30
2023/01/18 17:54:27;;;;;;;76.82;63.00;;;12.40;99.90;;;;;;4592256;19;20022;-30
2023/01/18 17:55:58;;;;;;;47.92;38.75;;;12.40;99.90;;;;;;4590870;19;20025;-30
2023/01/18 17:57:29;;;;;;;62.30;51.13;;;12.40;99.90;;;;;;4591467;19;20468;-30
2023/01/18 17:59:01;;;;;;;60.17;49.10;;;12.40;99.90;;;;;;4589604;19;20006;-30
2023/01/18 18:00:32;;;;;;;64.07;54.17;;;12.40;99.90;;;;;;4590165;19;20355;-30
2023/01/18 18:02:03;;;;;;;80.88;62.42;;;12.40;99.90;;;;;;4590231;19;20017;-30
2023/01/18 18:03:34;;;;;;;113.97;89.15;;;12.40;99.90;;;;;;4588836;19;20011;-30
2023/01/18 18:05:07;;;;;;;106.37;76.17;;;12.40;99.90;;;;;;4589962;19;20015;-29
2023/01/18 18:06:38;;;;;;;94.93;59.83;;;12.40;99.90;;;;;;4591166;19;20516;-31
2023/01/18 18:08:10;;;;;;;92.67;54.30;;;12.40;99.90;;;;;;4591736;19;20021;-30
2023/01/18 18:09:42;;;;;;;78.73;50.70;;;12.40;99.90;;;;;;4589750;19;20938;-30
2023/01/18 18:11:14;;;;;;;76.97;52.80;;;12.40;99.90;;;;;;4590815;19;20499;-29
2023/01/18 18:12:47;;;;;;;57.67;43.63;;;12.40;99.90;;;;;;4590891;19;20040;-29
2023/01/18 18:14:20;;;;;;;44.40;32.73;;;12.40;99.90;;;;;;4591288;19;20932;-30
2023/01/18 18:15:53;;;;;;;37.60;29.60;;;12.40;99.90;;;;;;4589938;19;20453;-30
2023/01/18 18:17:26;;;;;;;35.67;29.08;;;12.40;99.90;;;;;;4590068;19;20476;-30
2023/01/18 18:18:58;;;;;;;34.03;27.43;;;12.40;99.90;;;;;;4590335;19;20325;-29
2023/01/18 18:20:30;;;;;;;34.50;26.47;;;12.40;99.90;;;;;;4589380;19;20556;-29
2023/01/18 18:22:04;;;;;;;30.30;23.87;;;12.40;99.90;;;;;;4589418;19;20441;-29
2023/01/18 18:23:37;;;;;;;27.73;23.53;;;12.40;99.90;;;;;;4588494;19;20477;-29
2023/01/18 18:25:10;;;;;;;29.27;24.37;;;12.40;99.90;;;;;;4588904;19;20452;-30
2023/01/18 18:26:42;;;;;;;31.17;25.67;;;12.40;99.90;;;;;;4588608;19;20498;-30
2023/01/18 18:28:14;;;;;;;31.23;27.83;;;12.40;99.90;;;;;;4590858;19;20350;-30
2023/01/18 18:29:45;;;;;;;31.52;27.17;;;12.40;99.90;;;;;;4591542;19;20457;-29
2023/01/18 18:31:17;;;;;;;30.85;26.83;;;12.40;99.90;;;;;;4590209;19;20010;-30
2023/01/18 18:32:50;;;;;;;41.33;34.10;;;12.40;99.90;;;;;;4590051;19;20318;-30
2023/01/18 18:39:39;;;;;;;36.97;30.43;;;12.40;99.90;;;;;;4590290;19;21035;-30
2023/01/18 18:41:11;;;;;;;34.13;29.52;;;12.40;99.90;;;;;;4591655;19;20484;-30
2023/01/18 18:42:42;;;;;;;37.38;30.55;;;12.40;99.90;;;;;;4589430;19;20014;-30
2023/01/18 18:44:13;;;;;;;56.22;42.97;;;12.40;99.90;;;;;;4590305;19;20010;-29
2023/01/18 18:45:45;;;;;;;;;;;12.40;99.90;;;;;;4592267;19;20038;-31
2023/01/18 18:47:16;;;;;;;119.73;85.60;;;12.40;99.90;;;;;;4589461;19;19915;-30
2023/01/18 18:48:47;;;;;;;106.80;77.10;;;12.40;99.90;;;;;;4590285;19;21020;-30
2023/01/18 18:50:18;;;;;;;77.10;59.50;;;12.40;99.90;;;;;;4589629;19;20018;-29
2023/01/18 18:51:50;;;;;;;63.45;47.60;;;12.40;99.90;;;;;;4590354;19;20014;-30
2023/01/18 18:53:20;;;;;;;69.40;48.08;;;12.40;99.90;;;;;;4589351;19;20483;-30
2023/01/18 18:54:53;;;;;;;63.33;45.97;;;12.40;99.90;;;;;;4587803;19;20322;-31